Time;durP1;ratioP1;P1;durP2;ratioP2;P2;SDS_P1;SDS_P2;PMS_P1;PMS_P2;Temp;Humidity;BMP_temperature;BMP_pressure;BME280_temperature;BME280_humidity;BME280_pressure;Samples;Min_cycle;Max_cycle;Signal;HPM_P1;HPM_P2
2022/10/06 00:00:53;;;;;;;11.00;7.08;;;;;;;12.84;81.16;101017.45;1681349;84;26128;-86
2022/10/06 00:03:22;;;;;;;9.83;6.87;;;;;;;12.82;81.19;101016.31;1654471;85;26040;-85
2022/10/06 00:05:50;;;;;;;11.95;7.40;;;;;;;12.83;81.18;101019.84;1691005;84;25848;-86
2022/10/06 00:08:18;;;;;;;12.10;7.40;;;;;;;12.84;81.19;101008.05;1691492;84;25875;-85
2022/10/06 00:10:44;;;;;;;12.05;6.47;;;;;;;12.84;81.17;101004.02;1685949;84;25844;-85
2022/10/06 00:13:11;;;;;;;13.85;7.30;;;;;;;12.83;81.11;101013.13;1679152;84;26331;-86
2022/10/06 00:15:38;;;;;;;11.45;7.45;;;;;;;12.80;81.13;101011.64;1627021;86;28288;-86
2022/10/06 00:18:04;;;;;;;11.35;6.12;;;;;;;12.78;81.23;101017.72;1680740;84;25927;-86
2022/10/06 00:20:31;;;;;;;11.50;6.92;;;;;;;12.76;81.23;101006.83;1686295;84;25858;-85
2022/10/06 00:22:57;;;;;;;9.15;6.45;;;;;;;12.76;81.14;101009.52;1671035;84;25900;-85
2022/10/06 00:25:25;;;;;;;11.73;6.75;;;;;;;12.73;81.25;101009.38;1674835;84;25963;-86
2022/10/06 00:27:52;;;;;;;10.98;6.97;;;;;;;12.72;81.33;101005.55;1693920;84;26933;-86
2022/10/06 00:30:27;;;;;;;10.95;6.72;;;;;;;12.71;81.34;101003.37;1686123;84;25789;-85
2022/10/06 00:32:57;;;;;;;13.32;7.22;;;;;;;12.71;81.37;101006.06;1685227;84;25825;-85
2022/10/06 00:35:26;;;;;;;15.85;8.65;;;;;;;12.70;81.41;101007.60;1654258;85;25789;-86
2022/10/06 00:37:54;;;;;;;10.78;7.10;;;;;;;12.70;81.49;101004.91;1651253;85;25756;-85
2022/10/06 00:40:22;;;;;;;20.70;7.65;;;;;;;12.68;81.50;101001.05;1637373;85;27462;-86
2022/10/06 00:42:56;;;;;;;11.50;7.00;;;;;;;12.67;81.54;100999.41;1619834;87;25870;-86
2022/10/06 00:45:39;;;;;;;11.80;6.28;;;;;;;12.68;81.51;100998.90;1689403;84;25915;-86
2022/10/06 00:48:14;;;;;;;10.10;6.97;;;;;;;12.66;81.64;100997.72;1681444;84;25872;-86
2022/10/06 00:50:42;;;;;;;12.40;6.45;;;;;;;12.65;81.74;100999.27;1672109;84;26227;-85
2022/10/06 00:53:11;;;;;;;13.30;7.30;;;;;;;12.64;81.80;100997.62;1678106;84;27713;-86
2022/10/06 00:55:37;;;;;;;13.78;6.80;;;;;;;12.64;81.93;100997.62;1681802;84;25810;-86
2022/10/06 00:58:06;;;;;;;11.97;6.42;;;;;;;12.62;81.97;101003.16;1690123;84;25873;-86
2022/10/06 01:00:34;;;;;;;13.03;7.03;;;;;;;12.61;82.02;100992.11;1685810;84;25886;-85
2022/10/06 01:03:13;;;;;;;10.82;6.17;;;;;;;12.59;82.12;100993.31;1682146;84;25973;-86
2022/10/06 01:05:45;;;;;;;10.28;6.28;;;;;;;12.55;82.23;100992.03;1685976;84;27548;-85
2022/10/06 01:08:13;;;;;;;9.23;6.78;;;;;;;12.53;82.42;100990.05;1680936;84;25635;-86
2022/10/06 01:10:42;;;;;;;8.43;6.35;;;;;;;12.51;82.59;100994.78;1693568;84;26361;-85
2022/10/06 01:13:12;;;;;;;15.35;8.90;;;;;;;12.49;82.73;100993.61;1683237;84;25763;-86
2022/10/06 01:15:47;;;;;;;9.55;7.20;;;;;;;12.47;82.84;100990.27;1674925;84;25846;-86
2022/10/06 01:18:17;;;;;;;10.50;6.85;;;;;;;12.44;82.97;100989.83;1688364;84;28367;-85
2022/10/06 01:20:50;;;;;;;9.33;6.37;;;;;;;12.40;83.12;100987.51;1680815;84;26016;-85
2022/10/06 01:23:17;;;;;;;8.23;6.60;;;;;;;12.38;83.23;100995.46;1680584;84;26009;-85
2022/10/06 01:25:44;;;;;;;11.65;6.40;;;;;;;12.34;83.31;100986.92;1679719;84;25767;-86
2022/10/06 01:28:13;;;;;;;8.70;5.55;;;;;;;12.30;83.55;100988.33;1679807;84;25844;-85
2022/10/06 01:30:51;;;;;;;9.93;6.42;;;;;;;12.27;83.69;100979.30;1690977;84;27906;-86
2022/10/06 01:33:20;;;;;;;7.70;5.70;;;;;;;12.26;83.92;100978.98;1674238;84;25567;-86
2022/10/06 01:35:50;;;;;;;9.33;6.00;;;;;;;12.25;84.11;100985.90;1676983;84;26143;-86
2022/10/06 01:38:18;;;;;;;11.75;6.75;;;;;;;12.24;84.24;100985.06;1672871;84;25828;-86
2022/10/06 01:40:50;;;;;;;10.13;6.53;;;;;;;12.26;84.36;100976.80;1690258;84;25368;-86
2022/10/06 01:43:16;;;;;;;11.57;5.97;;;;;;;12.25;84.45;100978.65;1678870;84;27540;-85
2022/10/06 01:45:43;;;;;;;10.65;6.22;;;;;;;12.22;84.50;100979.05;1684181;84;25892;-86
2022/10/06 01:48:09;;;;;;;9.10;6.12;;;;;;;12.20;84.64;100977.06;1666234;85;26345;-86
2022/10/06 01:50:35;;;;;;;9.38;5.62;;;;;;;12.20;84.65;100978.91;1662982;84;25871;-85
2022/10/06 01:53:02;;;;;;;11.00;6.37;;;;;;;12.19;84.77;100973.20;1695825;84;25801;-85
2022/10/06 01:55:29;;;;;;;10.98;5.78;;;;;;;12.20;84.86;100974.88;1693723;84;27512;-86
2022/10/06 01:57:56;;;;;;;9.48;6.50;;;;;;;12.20;84.94;100973.03;1678113;84;26070;-85
2022/10/06 02:00:23;;;;;;;12.15;6.37;;;;;;;12.20;85.02;100977.06;1685965;84;25774;-85
2022/10/06 02:02:50;;;;;;;12.53;6.80;;;;;;;12.20;85.10;100969.00;1637148;86;25925;-85
2022/10/06 02:05:16;;;;;;;11.85;6.87;;;;;;;12.22;85.12;100978.20;1683337;84;25839;-85
2022/10/06 02:07:45;;;;;;;9.80;6.50;;;;;;;12.21;85.19;100979.24;1674088;84;27653;-85
2022/10/06 02:10:13;;;;;;;12.20;6.22;;;;;;;12.20;85.20;100977.06;1670612;84;25985;-86
2022/10/06 02:12:39;;;;;;;9.20;6.33;;;;;;;12.19;85.31;100982.09;1674434;84;25809;-86
2022/10/06 02:15:09;;;;;;;9.40;5.90;;;;;;;12.20;85.39;100977.56;1682313;84;26143;-86
2022/10/06 02:17:37;;;;;;;12.47;6.00;;;;;;;12.17;85.41;100985.48;1686644;84;26070;-86
2022/10/06 02:20:05;;;;;;;10.65;6.12;;;;;;;12.17;85.50;100988.66;1691637;84;27640;-86
2022/10/06 02:22:31;;;;;;;12.10;6.30;;;;;;;12.16;85.58;100989.20;1682699;84;26302;-85
2022/10/06 02:24:58;;;;;;;7.65;5.67;;;;;;;12.18;85.58;100996.56;1667846;84;25554;-86
2022/10/06 02:27:24;;;;;;;9.25;6.22;;;;;;;12.21;85.61;100992.67;1684071;84;25847;-85
2022/10/06 02:29:51;;;;;;;9.20;5.87;;;;;;;12.21;85.61;100993.48;1686262;84;25945;-85
2022/10/06 02:32:17;;;;;;;11.78;6.42;;;;;;;12.22;85.66;100992.98;1693314;84;27464;-86
2022/10/06 02:34:44;;;;;;;8.68;5.28;;;;;;;12.20;85.71;100989.65;1675183;84;26082;-84
2022/10/06 02:37:12;;;;;;;7.90;5.60;;;;;;;12.19;85.79;101006.27;1687963;84;25883;-86
2022/10/06 02:39:38;;;;;;;9.25;5.80;;;;;;;12.17;85.79;101005.62;1652191;85;25902;-85
2022/10/06 02:42:04;;;;;;;9.55;5.00;;;;;;;12.18;85.87;101011.83;1685400;84;25813;-86
2022/10/06 02:44:33;;;;;;;9.30;5.30;;;;;;;12.17;85.92;101004.27;1684373;84;27478;-85
2022/10/06 02:46:59;;;;;;;8.18;5.65;;;;;;;12.18;85.97;101005.95;1663309;84;25936;-86
2022/10/06 02:49:26;;;;;;;10.93;5.92;;;;;;;12.18;85.97;101011.33;1681541;84;25957;-85
2022/10/06 02:51:52;;;;;;;8.18;5.10;;;;;;;12.21;86.01;101010.94;1677039;84;25927;-85
2022/10/06 02:54:18;;;;;;;9.08;5.20;;;;;;;12.24;85.99;101015.11;1647249;85;26422;-86
2022/10/06 02:56:45;;;;;;;8.50;5.65;;;;;;;12.26;85.94;101008.53;1680554;84;27535;-86
2022/10/06 02:59:12;;;;;;;6.60;5.83;;;;;;;12.25;85.88;101007.39;1668988;84;26319;-85
2022/10/06 03:01:39;;;;;;;7.40;5.25;;;;;;;12.25;86.04;101014.10;1671576;84;25785;-85
2022/10/06 03:04:07;;;;;;;9.05;5.70;;;;;;;12.26;86.03;101015.75;1678923;84;26372;-86
2022/10/06 03:06:34;;;;;;;8.03;5.90;;;;;;;12.26;85.98;101017.09;1673513;84;25933;-85
2022/10/06 03:09:06;;;;;;;8.95;5.90;;;;;;;12.26;86.05;101011.22;1686080;84;26959;-86
2022/10/06 03:11:38;;;;;;;11.53;6.00;;;;;;;12.24;85.97;101022.66;1678718;84;25801;-86
2022/10/06 03:14:06;;;;;;;10.00;6.25;;;;;;;12.24;86.04;101024.00;1676055;84;25868;-86
2022/10/06 03:16:40;;;;;;;13.83;6.30;;;;;;;12.23;86.07;101027.70;1694340;84;26564;-86
2022/10/06 03:19:09;;;;;;;12.47;5.70;;;;;;;12.24;86.03;101028.53;1685126;84;26486;-86
2022/10/06 03:21:40;;;;;;;17.07;5.90;;;;;;;12.23;86.07;101029.58;1689582;84;26838;-86
2022/10/06 03:24:07;;;;;;;10.00;5.83;;;;;;;12.22;86.11;101026.05;1682358;84;25856;-85
2022/10/06 03:26:39;;;;;;;8.75;5.85;;;;;;;12.20;86.17;101032.12;1671559;84;25895;-85
2022/10/06 03:29:08;;;;;;;9.95;5.97;;;;;;;12.20;86.17;101037.99;1684708;84;25758;-85
2022/10/06 03:31:36;;;;;;;9.90;6.17;;;;;;;12.20;86.16;101036.65;1682358;84;25787;-85
2022/10/06 03:34:03;;;;;;;8.03;5.22;;;;;;;12.16;86.16;101034.86;1694688;84;27493;-86
2022/10/06 03:36:32;;;;;;;7.83;5.95;;;;;;;12.16;86.10;101030.83;1683467;84;25704;-86
2022/10/06 03:39:01;;;;;;;7.72;5.45;;;;;;;12.17;86.06;101041.88;1645142;85;25872;-85
2022/10/06 03:41:31;;;;;;;10.88;5.85;;;;;;;12.13;86.06;101043.77;1632894;85;25903;-86
2022/10/06 03:43:59;;;;;;;9.75;5.62;;;;;;;12.10;86.16;101043.63;1652644;85;25841;-86
2022/10/06 03:46:29;;;;;;;8.58;5.60;;;;;;;12.08;86.27;101038.95;1630569;86;28333;-85
2022/10/06 03:48:58;;;;;;;7.87;5.67;;;;;;;12.09;86.38;101042.48;1630757;86;25942;-86
2022/10/06 03:51:32;;;;;;;21.17;6.20;;;;;;;12.08;86.29;101042.98;1684519;83;26417;-85
2022/10/06 03:53:59;;;;;;;9.43;6.35;;;;;;;12.07;86.32;101042.67;1646419;84;25918;-85
2022/10/06 03:56:33;;;;;;;7.20;5.80;;;;;;;12.06;86.26;101040.19;1649022;84;25678;-85
2022/10/06 03:59:04;;;;;;;7.25;5.58;;;;;;;12.06;86.20;101042.34;1681812;84;27716;-85
2022/10/06 04:01:36;;;;;;;7.78;5.58;;;;;;;12.06;86.22;101053.08;1682605;84;25859;-85
2022/10/06 04:04:05;;;;;;;8.98;5.35;;;;;;;12.06;86.16;101053.61;1661674;84;25871;-86
2022/10/06 04:06:38;;;;;;;7.55;5.80;;;;;;;12.05;86.22;101054.11;1688256;83;25833;-85
2022/10/06 04:09:10;;;;;;;7.10;5.53;;;;;;;12.06;86.09;101058.98;1685527;84;25977;-85
2022/10/06 04:11:38;;;;;;;8.00;5.90;;;;;;;12.05;86.16;101059.48;1688129;84;27447;-85
2022/10/06 04:14:11;;;;;;;10.30;5.87;;;;;;;12.05;86.17;101057.30;1692373;83;25786;-85
2022/10/06 04:16:46;;;;;;;8.18;6.05;;;;;;;12.04;86.25;101057.80;1655193;84;26572;-86
2022/10/06 04:19:15;;;;;;;8.75;5.97;;;;;;;12.05;86.15;101060.83;1677002;83;26027;-85
2022/10/06 04:21:46;;;;;;;7.25;5.45;;;;;;;12.03;86.09;101062.86;1681282;83;26005;-86
2022/10/06 04:24:17;;;;;;;9.35;5.87;;;;;;;12.02;86.15;101065.20;1682699;84;27515;-86
2022/10/06 04:26:47;;;;;;;9.55;5.25;;;;;;;12.00;86.16;101073.96;1677522;84;25940;-85
2022/10/06 04:29:14;;;;;;;10.15;6.42;;;;;;;11.98;86.18;101072.47;1661430;84;25955;-85
2022/10/06 04:31:42;;;;;;;6.35;5.50;;;;;;;11.97;86.22;101073.50;1691838;83;26528;-86
2022/10/06 04:34:14;;;;;;;10.43;5.60;;;;;;;11.97;86.20;101074.84;1685835;84;25894;-85
2022/10/06 04:36:42;;;;;;;10.10;5.97;;;;;;;11.99;86.17;101083.05;1683602;83;27488;-86
2022/10/06 04:39:11;;;;;;;9.33;6.03;;;;;;;11.99;86.14;101081.70;1692525;84;25812;-86
2022/10/06 04:41:41;;;;;;;8.20;6.30;;;;;;;11.98;86.16;101092.11;1679269;84;26523;-84
2022/10/06 04:44:09;;;;;;;11.50;6.25;;;;;;;11.98;86.28;101088.58;1691212;83;25780;-86
2022/10/06 04:46:37;;;;;;;13.45;6.55;;;;;;;11.96;86.21;101090.11;1632052;86;25955;-85
2022/10/06 04:49:04;;;;;;;11.28;6.42;;;;;;;11.96;86.15;101092.80;1660051;85;27562;-87
2022/10/06 04:51:32;;;;;;;8.43;5.58;;;;;;;11.96;86.12;101099.52;1620902;85;26354;-85
2022/10/06 04:54:01;;;;;;;11.65;6.28;;;;;;;11.95;86.23;101097.86;1684174;84;26005;-85
2022/10/06 04:56:30;;;;;;;10.28;6.65;;;;;;;11.95;86.21;101103.23;1654811;84;25863;-85
2022/10/06 04:58:59;;;;;;;9.90;5.75;;;;;;;11.93;86.18;101106.58;1683457;83;25867;-86
2022/10/06 05:01:30;;;;;;;7.87;5.75;;;;;;;11.95;86.23;101115.81;1691421;84;27456;-86
2022/10/06 05:03:59;;;;;;;13.10;5.60;;;;;;;11.95;86.20;101107.77;1680047;84;25958;-87
2022/10/06 05:06:32;;;;;;;10.32;6.22;;;;;;;11.97;86.18;101108.41;1687866;83;25883;-86
2022/10/06 05:09:12;;;;;;;7.53;5.75;;;;;;;11.98;86.25;101114.93;1698192;83;26444;-85
2022/10/06 05:11:40;;;;;;;10.15;5.67;;;;;;;12.01;86.32;101119.10;1669880;84;25830;-85
2022/10/06 05:14:08;;;;;;;8.30;5.72;;;;;;;12.02;86.33;101116.73;1674612;84;28211;-85
2022/10/06 05:16:37;;;;;;;7.62;5.62;;;;;;;12.01;86.41;101117.26;1683512;83;25552;-86
2022/10/06 05:19:04;;;;;;;10.43;5.53;;;;;;;12.03;86.36;101121.09;1684703;84;26523;-86
2022/10/06 05:21:32;;;;;;;8.55;6.00;;;;;;;12.04;86.35;101130.83;1684610;84;25883;-85
2022/10/06 05:24:01;;;;;;;8.55;6.22;;;;;;;12.04;86.51;101129.48;1643209;85;25946;-85
2022/10/06 05:26:32;;;;;;;11.53;6.12;;;;;;;12.03;86.72;101131.33;1681306;84;27529;-86
2022/10/06 05:29:01;;;;;;;11.20;6.03;;;;;;;12.03;86.94;101132.67;1601148;87;26382;-85
2022/10/06 05:31:37;;;;;;;8.48;5.78;;;;;;;12.03;87.19;101125.96;1685811;84;25560;-86
2022/10/06 05:34:04;;;;;;;12.30;6.20;;;;;;;12.05;87.50;101132.48;1678953;84;26650;-86
2022/10/06 05:36:32;;;;;;;9.15;5.22;;;;;;;12.04;87.81;101132.17;1660289;84;26136;-86
2022/10/06 05:39:02;;;;;;;6.78;5.25;;;;;;;12.06;88.03;101138.20;1662509;84;27560;-86
2022/10/06 05:41:32;;;;;;;8.90;5.53;;;;;;;12.06;88.25;101140.34;1684705;83;25847;-85
2022/10/06 05:44:01;;;;;;;9.38;5.67;;;;;;;12.09;88.51;101141.84;1684184;83;25967;-85
2022/10/06 05:46:32;;;;;;;12.73;6.50;;;;;;;12.11;88.66;101147.86;1693590;83;25717;-86
2022/10/06 05:49:02;;;;;;;7.67;5.87;;;;;;;12.15;88.94;101143.78;1657917;84;25636;-85
2022/10/06 05:51:33;;;;;;;11.78;5.60;;;;;;;12.19;89.01;101141.05;1680132;83;27477;-85
2022/10/06 05:54:01;;;;;;;;;;;;;;;12.23;89.27;101153.94;1687130;84;25982;-85
2022/10/06 05:56:32;;;;;;;7.28;5.53;;;;;;;12.28;89.43;101153.39;1676127;84;25772;-85
2022/10/06 05:59:00;;;;;;;7.80;5.65;;;;;;;12.31;89.56;101161.09;1683269;84;25839;-86
2022/10/06 06:01:38;;;;;;;9.33;6.22;;;;;;;12.35;89.71;101163.23;1694264;84;25868;-86
2022/10/06 06:04:11;;;;;;;7.50;6.45;;;;;;;12.41;90.00;101171.05;1685913;84;27461;-85
2022/10/06 06:06:45;;;;;;;9.10;5.28;;;;;;;12.48;90.18;101180.55;1639557;85;26336;-85
2022/10/06 06:09:17;;;;;;;12.28;5.67;;;;;;;12.56;90.49;101181.79;1684419;84;25865;-85
2022/10/06 06:11:49;;;;;;;14.35;5.83;;;;;;;12.66;90.70;101190.43;1689671;84;25853;-86
2022/10/06 06:15:59;;;;;;;7.00;5.70;;;;;;;12.75;91.05;101194.16;1689045;84;26340;-85
2022/10/06 06:16:51;;;;;;;9.30;5.70;;;;;;;12.85;91.05;101198.73;1686271;83;27624;-85
2022/10/06 06:19:17;;;;;;;11.85;6.17;;;;;;;12.92;91.00;101202.86;1697007;83;26351;-85
2022/10/06 06:21:45;;;;;;;8.78;5.92;;;;;;;12.99;91.02;101207.31;1691471;83;26356;-85
2022/10/06 06:24:12;;;;;;;8.68;5.42;;;;;;;13.06;91.14;101212.81;1691986;84;25821;-85
2022/10/06 06:26:38;;;;;;;11.73;6.15;;;;;;;13.11;91.23;101214.41;1688670;83;25733;-85
2022/10/06 06:29:05;;;;;;;6.85;5.45;;;;;;;13.18;91.06;101223.91;1695584;83;28008;-85
2022/10/06 06:31:36;;;;;;;8.35;5.60;;;;;;;13.23;91.15;101223.68;1690261;83;25864;-85
2022/10/06 06:34:05;;;;;;;7.05;5.22;;;;;;;13.29;91.14;101221.58;1658810;85;26588;-84
2022/10/06 06:36:39;;;;;;;9.85;6.20;;;;;;;13.35;91.05;101232.92;1651412;85;25855;-85
2022/10/06 06:39:10;;;;;;;7.25;5.22;;;;;;;13.40;91.02;101233.20;1633712;85;25817;-85
2022/10/06 06:41:44;;;;;;;8.93;5.50;;;;;;;13.48;91.14;101240.30;1686373;84;27592;-85
2022/10/06 06:44:16;;;;;;;8.00;6.20;;;;;;;13.52;91.07;101242.44;1688885;84;25826;-86
2022/10/06 06:46:48;;;;;;;7.75;5.58;;;;;;;13.58;91.00;101249.73;1690131;84;26012;-85
2022/10/06 06:49:18;;;;;;;8.30;6.00;;;;;;;13.63;90.87;101251.86;1685959;84;26644;-86
2022/10/06 06:51:49;;;;;;;8.85;5.90;;;;;;;13.67;90.81;101255.33;1688085;83;25633;-85
2022/10/06 06:54:18;;;;;;;11.05;6.22;;;;;;;13.72;90.74;101258.30;1635516;86;27483;-85
2022/10/06 06:56:47;;;;;;;8.35;6.00;;;;;;;13.77;90.81;101263.11;1654588;85;25770;-86
2022/10/06 06:59:17;;;;;;;10.32;6.58;;;;;;;13.81;90.81;101273.28;1683630;84;25322;-85
2022/10/06 07:01:47;;;;;;;8.47;7.27;;;;;;;13.85;90.70;101268.38;1686551;84;26026;-85
2022/10/06 07:04:17;;;;;;;9.67;7.00;;;;;;;13.89;90.58;101265.11;1683658;84;25800;-85
2022/10/06 07:06:57;;;;;;;9.15;6.40;;;;;;;13.93;90.61;101276.31;1677433;84;27163;-85
2022/10/06 07:09:26;;;;;;;10.28;7.15;;;;;;;13.97;90.62;101280.29;1689539;83;25778;-85
2022/10/06 07:11:54;;;;;;;11.97;5.95;;;;;;;14.00;90.51;101276.38;1687156;83;25834;-85
2022/10/06 07:14:23;;;;;;;8.53;6.10;;;;;;;14.04;90.44;101277.66;1661307;84;26560;-84
2022/10/06 07:25:09;;;;;;;10.05;5.60;;;;;;;14.18;90.35;101281.63;1682557;84;25322;-85
2022/10/06 07:27:44;;;;;;;9.40;5.03;;;;;;;14.20;90.20;101286.31;1686335;84;26446;-86
2022/10/06 07:30:20;;;;;;;9.48;6.12;;;;;;;14.23;90.12;101279.20;1692860;84;25776;-86
2022/10/06 07:32:50;;;;;;;10.10;5.45;;;;;;;14.26;90.12;101277.98;1677085;84;27627;-86
2022/10/06 07:35:19;;;;;;;7.53;4.85;;;;;;;14.31;90.12;101276.90;1668927;84;26395;-86
2022/10/06 07:37:49;;;;;;;6.85;5.22;;;;;;;14.35;90.25;101289.80;1669018;84;25784;-87
2022/10/06 07:40:17;;;;;;;11.40;5.78;;;;;;;14.39;90.20;101289.72;1683083;84;25846;-86
2022/10/06 07:42:47;;;;;;;11.97;5.97;;;;;;;14.46;90.31;101291.97;1682796;84;26668;-85
2022/10/06 07:48:17;;;;;;;8.95;5.78;;;;;;;14.59;90.29;101296.12;1674544;84;25845;-86
2022/10/06 07:50:49;;;;;;;6.85;4.85;;;;;;;14.67;90.35;101298.66;1672238;84;25767;-85
2022/10/06 07:53:18;;;;;;;7.12;5.17;;;;;;;14.78;90.39;101303.22;1684212;84;26027;-86
2022/10/06 07:55:48;;;;;;;9.28;5.47;;;;;;;14.86;90.26;101306.59;1686491;84;25848;-85
2022/10/06 07:58:24;;;;;;;8.93;4.92;;;;;;;14.95;90.05;101309.43;1686302;84;27452;-86
2022/10/06 08:00:53;;;;;;;7.45;5.12;;;;;;;15.04;90.09;101311.45;1690136;84;26332;-86
2022/10/06 08:03:21;;;;;;;9.78;5.58;;;;;;;15.12;90.06;101305.38;1687162;84;26369;-86
2022/10/06 08:05:51;;;;;;;9.25;5.40;;;;;;;15.21;90.08;101316.84;1687405;84;26541;-87
2022/10/06 08:08:18;;;;;;;6.85;5.53;;;;;;;15.28;89.89;101313.17;1683059;84;25633;-87
2022/10/06 08:10:53;;;;;;;7.90;5.15;;;;;;;15.36;89.92;101315.69;1690547;84;27497;-86
2022/10/06 08:13:20;;;;;;;8.03;4.87;;;;;;;15.43;89.40;101318.45;1690904;84;26465;-86
2022/10/06 08:15:50;;;;;;;9.28;4.90;;;;;;;15.50;89.36;101317.98;1689158;83;25852;-86
2022/10/06 08:18:16;;;;;;;11.93;5.00;;;;;;;15.58;89.27;101321.84;1667021;84;25828;-87
2022/10/06 08:20:44;;;;;;;7.35;5.22;;;;;;;15.66;89.14;101318.97;1676226;84;25858;-87
2022/10/06 08:23:12;;;;;;;10.30;5.35;;;;;;;15.74;88.94;101323.38;1676170;84;27464;-86
2022/10/06 08:25:42;;;;;;;9.43;4.97;;;;;;;15.78;88.63;101317.33;1673358;84;25854;-87
2022/10/06 08:28:10;;;;;;;8.03;5.22;;;;;;;15.84;88.60;101323.30;1672483;84;25844;-86
2022/10/06 08:30:36;;;;;;;7.08;5.35;;;;;;;15.90;88.49;101321.13;1678048;84;25859;-86
2022/10/06 08:33:04;;;;;;;11.10;4.97;;;;;;;15.99;88.39;101333.42;1677173;84;25845;-86
2022/10/06 08:35:32;;;;;;;7.47;5.25;;;;;;;16.11;88.31;101341.23;1681742;84;27630;-86
2022/10/06 08:37:58;;;;;;;10.13;6.05;;;;;;;16.21;88.01;101343.02;1673535;84;26022;-86
2022/10/06 08:40:27;;;;;;;10.30;5.47;;;;;;;16.30;87.49;101343.65;1672616;84;25918;-87
2022/10/06 08:42:57;;;;;;;6.55;5.53;;;;;;;16.38;87.21;101347.50;1686577;83;25957;-86
2022/10/06 08:45:38;;;;;;;8.83;4.95;;;;;;;16.48;87.23;101355.22;1631993;86;26430;-86
2022/10/06 08:48:15;;;;;;;8.30;4.85;;;;;;;16.56;87.01;101364.51;1689409;84;27139;-85
2022/10/06 08:51:02;;;;;;;8.20;4.72;;;;;;;16.64;86.86;101361.59;1684017;84;26043;-85
2022/10/06 08:53:45;;;;;;;7.28;5.12;;;;;;;16.72;86.72;101365.47;1687083;84;25509;-85
2022/10/06 08:56:22;;;;;;;6.62;4.83;;;;;;;16.81;86.30;101369.61;1669812;84;25964;-86
2022/10/06 08:58:56;;;;;;;6.80;4.75;;;;;;;16.91;86.71;101376.26;1688852;84;25847;-85
2022/10/06 09:01:26;;;;;;;7.45;4.10;;;;;;;17.02;86.50;101380.23;1684892;84;27498;-85
2022/10/06 09:04:00;;;;;;;4.85;3.90;;;;;;;17.09;86.36;101378.84;1667646;85;25836;-85
2022/10/06 09:06:51;;;;;;;10.35;4.45;;;;;;;17.11;85.93;101378.14;1682104;84;26073;-85
2022/10/06 09:09:54;;;;;;;9.45;4.95;;;;;;;17.13;85.37;101389.05;1675375;84;26412;-85
2022/10/06 09:12:38;;;;;;;7.70;4.85;;;;;;;17.09;84.77;101385.61;1679232;84;25669;-85
2022/10/06 09:15:32;;;;;;;6.55;5.58;;;;;;;17.11;84.84;101388.42;1677820;84;28481;-86
2022/10/06 09:18:04;;;;;;;7.75;5.33;;;;;;;17.16;85.23;101390.00;1675400;84;25913;-85
2022/10/06 09:21:01;;;;;;;11.48;4.95;;;;;;;17.23;84.83;101391.34;1666033;84;25826;-85
2022/10/06 09:23:47;;;;;;;8.63;5.40;;;;;;;17.28;84.78;101385.59;1680020;84;26746;-85
2022/10/06 09:26:21;;;;;;;8.95;5.15;;;;;;;17.37;84.80;101389.75;1689929;83;26488;-84
2022/10/06 09:28:48;;;;;;;7.03;4.97;;;;;;;17.43;85.05;101383.47;1688187;84;27653;-85
2022/10/06 09:31:25;;;;;;;6.40;4.80;;;;;;;17.53;84.96;101395.27;1683585;84;25777;-85
2022/10/06 09:34:00;;;;;;;5.50;4.10;;;;;;;17.61;84.48;101393.67;1696757;84;26346;-85
2022/10/06 09:36:26;;;;;;;6.17;4.20;;;;;;;17.68;84.34;101401.27;1682744;84;26173;-85
2022/10/06 09:38:57;;;;;;;7.67;4.58;;;;;;;17.76;84.46;101406.95;1683988;84;25876;-84
2022/10/06 09:41:37;;;;;;;8.05;4.22;;;;;;;17.84;83.85;101413.48;1686758;84;28224;-81
2022/10/06 09:44:08;;;;;;;7.40;4.17;;;;;;;17.91;84.09;101409.72;1680721;84;25723;-84
2022/10/06 09:46:40;;;;;;;5.00;4.40;;;;;;;18.05;84.23;101407.80;1652322;85;26162;-85
2022/10/06 09:49:23;;;;;;;7.25;4.50;;;;;;;18.15;83.99;101413.57;1683808;84;26291;-85
2022/10/06 09:52:17;;;;;;;7.15;4.47;;;;;;;18.20;83.59;101414.58;1679253;84;25904;-84
2022/10/06 09:54:44;;;;;;;6.87;3.37;;;;;;;18.24;82.94;101413.09;1683099;84;28276;-85
2022/10/06 09:57:25;;;;;;;4.87;3.75;;;;;;;18.26;82.75;101410.98;1685102;84;25328;-85
2022/10/06 09:59:52;;;;;;;6.25;3.40;;;;;;;18.34;82.90;101413.98;1684240;84;25880;-85
2022/10/06 10:02:35;;;;;;;5.90;4.00;;;;;;;18.41;83.20;101415.59;1690145;84;25869;-85
2022/10/06 10:05:17;;;;;;;4.50;3.20;;;;;;;18.50;82.25;101413.48;1683934;84;25608;-86
2022/10/06 10:07:46;;;;;;;7.20;3.80;;;;;;;18.61;82.39;101420.93;1663072;84;27982;-84
2022/10/06 10:10:22;;;;;;;10.63;4.00;;;;;;;18.71;82.16;101432.67;1688296;84;25852;-85
2022/10/06 10:12:55;;;;;;;7.67;4.22;;;;;;;18.72;81.63;101429.73;1646360;85;25912;-86
2022/10/06 10:15:30;;;;;;;6.30;4.12;;;;;;;18.72;81.41;101435.67;1672750;84;26528;-85
2022/10/06 10:18:03;;;;;;;5.62;3.72;;;;;;;18.71;81.01;101440.81;1687092;84;26654;-85
2022/10/06 10:20:36;;;;;;;10.03;3.98;;;;;;;18.66;80.91;101447.41;1689756;84;28284;-85
2022/10/06 10:23:28;;;;;;;5.90;3.58;;;;;;;18.65;81.12;101441.70;1683887;84;25797;-85
2022/10/06 10:26:27;;;;;;;4.50;2.98;;;;;;;18.67;81.63;101439.05;1685759;84;25662;-85
2022/10/06 10:29:13;;;;;;;7.10;3.20;;;;;;;18.71;81.71;101451.67;1684688;84;25839;-86
2022/10/06 10:32:01;;;;;;;5.37;3.27;;;;;;;18.75;81.51;101459.16;1681912;84;25850;-85
2022/10/06 10:35:15;;;;;;;4.05;2.85;;;;;;;18.78;81.34;101458.70;1688731;84;27712;-85
2022/10/06 10:37:50;;;;;;;4.60;3.15;;;;;;;18.81;81.32;101467.78;1696334;84;26506;-83
2022/10/06 10:40:50;;;;;;;5.10;2.90;;;;;;;18.81;80.09;101467.78;1681611;84;26515;-84
2022/10/06 10:43:34;;;;;;;4.50;2.90;;;;;;;18.78;80.05;101466.00;1696862;84;25810;-83
2022/10/06 10:46:26;;;;;;;2.80;2.30;;;;;;;18.73;79.68;101467.21;1678798;85;25816;-85
2022/10/06 10:48:58;;;;;;;;;;;;;;;18.68;79.70;101476.52;1682325;84;27501;-85
2022/10/06 10:51:29;;;;;;;5.28;2.30;;;;;;;18.65;79.78;101472.36;1680610;84;25746;-85
2022/10/06 10:54:04;;;;;;;12.40;3.33;;;;;;;18.60;79.37;101480.86;1683658;84;25330;-84
2022/10/06 10:56:32;;;;;;;5.00;3.08;;;;;;;18.55;79.65;101476.08;1688660;84;26645;-85
2022/10/06 10:59:29;;;;;;;3.95;3.22;;;;;;;18.53;79.48;101478.70;1677305;84;25898;-85
2022/10/06 11:02:18;;;;;;;4.95;2.92;;;;;;;18.50;79.51;101477.25;1676510;84;27485;-85
2022/10/06 11:04:49;;;;;;;3.50;2.92;;;;;;;18.49;79.81;101476.95;1678615;84;25845;-85
2022/10/06 11:07:53;;;;;;;4.28;3.12;;;;;;;18.49;79.82;101478.31;1677347;84;25361;-84
2022/10/06 11:10:27;;;;;;;8.88;3.60;;;;;;;18.49;79.74;101474.24;1623081;86;25937;-87
2022/10/06 11:13:11;;;;;;;4.65;3.98;;;;;;;18.48;79.76;101492.91;1689937;84;26191;-86
2022/10/06 11:16:05;;;;;;;5.47;3.60;;;;;;;18.49;79.92;101498.66;1670446;84;27488;-86
2022/10/06 11:18:51;;;;;;;3.98;3.58;;;;;;;18.52;79.69;101496.84;1682998;84;25961;-85
2022/10/06 11:21:47;;;;;;;5.83;3.50;;;;;;;18.55;79.54;101502.38;1637225;87;25850;-86
2022/10/06 11:24:39;;;;;;;4.40;3.80;;;;;;;18.57;79.29;101494.84;1615225;87;26030;-86
2022/10/06 11:27:41;;;;;;;3.90;3.42;;;;;;;18.57;78.92;101501.11;1697764;83;25846;-86
2022/10/06 11:30:18;;;;;;;6.03;4.22;;;;;;;18.59;78.53;101503.08;1684460;84;28021;-85
2022/10/06 11:33:01;;;;;;;10.65;3.90;;;;;;;18.64;78.72;101516.00;1685126;84;26011;-86
2022/10/06 11:35:35;;;;;;;7.70;3.60;;;;;;;18.63;78.56;101515.16;1687171;84;25355;-86
2022/10/06 11:38:25;;;;;;;6.33;3.87;;;;;;;18.68;79.05;101509.09;1677507;84;26604;-86
2022/10/06 11:41:24;;;;;;;7.92;3.55;;;;;;;18.71;79.11;101498.62;1645149;85;25998;-84
2022/10/06 11:44:07;;;;;;;3.85;3.40;;;;;;;18.75;78.84;101493.61;1679040;84;28270;-85
2022/10/06 11:46:38;;;;;;;5.08;3.90;;;;;;;18.77;78.19;101499.13;1689368;84;25825;-85
2022/10/06 11:49:35;;;;;;;10.30;3.95;;;;;;;18.87;78.53;101492.69;1686814;84;25933;-85
2022/10/06 11:52:10;;;;;;;5.45;3.08;;;;;;;18.94;78.59;101510.28;1668844;84;25877;-85
2022/10/06 11:54:45;;;;;;;5.55;2.50;;;;;;;18.98;77.33;101511.51;1650673;85;25827;-86
2022/10/06 11:57:30;;;;;;;5.65;2.90;;;;;;;18.95;76.43;101512.77;1680927;84;27963;-85